createdAt,value
2022-11-28T00:01:27.757Z,100887.72
2022-11-28T00:03:54.509Z,100876.31
2022-11-28T00:06:21.199Z,100882.38
2022-11-28T00:08:48.387Z,100870.97
2022-11-28T00:11:16.751Z,100867.41
2022-11-28T00:13:44.187Z,100865.78
2022-11-28T00:16:15.807Z,100860.59
2022-11-28T00:18:42.452Z,100860.50
2022-11-28T00:21:12.469Z,100861.38
2022-11-28T00:23:39.304Z,100853.38
2022-11-28T00:26:09.742Z,100851.72
2022-11-28T00:28:36.384Z,100850.03
2022-11-28T00:31:03.568Z,100854.22
2022-11-28T00:33:32.109Z,100856.91
2022-11-28T00:36:03.510Z,100848.97
2022-11-28T00:38:30.571Z,100849.25
2022-11-28T00:41:25.032Z,100842.81
2022-11-28T00:43:51.921Z,100839.41
2022-11-28T00:46:20.563Z,100836.69
2022-11-28T00:48:47.176Z,100836.00
2022-11-28T00:51:19.066Z,100829.47
2022-11-28T00:53:47.944Z,100835.53
2022-11-28T00:56:17.853Z,100834.75
2022-11-28T00:58:44.539Z,100829.41
2022-11-28T01:01:14.550Z,100831.19
2022-11-28T01:03:42.135Z,100830.94
2022-11-28T01:06:10.305Z,100818.78
2022-11-28T01:08:37.336Z,100818.31
2022-11-28T01:11:04.691Z,100820.34
2022-11-28T01:13:31.192Z,100816.53
2022-11-28T01:15:58.810Z,100820.84
2022-11-28T01:18:25.518Z,100823.97
2022-11-28T01:20:51.987Z,100807.97
2022-11-28T01:23:19.234Z,100811.09
2022-11-28T01:25:45.766Z,100821.63
2022-11-28T01:28:12.246Z,100810.00
2022-11-28T01:30:38.912Z,100807.06
2022-11-28T01:33:05.428Z,100805.81
2022-11-28T01:35:32.036Z,100799.53
2022-11-28T01:37:58.510Z,100802.25
2022-11-28T01:40:25.195Z,100803.16
2022-11-28T01:42:51.655Z,100790.84
2022-11-28T01:45:28.158Z,100789.16
2022-11-28T01:47:59.166Z,100789.97
2022-11-28T01:50:27.122Z,100789.94
2022-11-28T01:52:57.563Z,100794.44
2022-11-28T01:55:27.282Z,100785.75
2022-11-28T01:57:55.337Z,100778.75
2022-11-28T02:00:22.434Z,100769.66
2022-11-28T02:02:53.397Z,100775.88
2022-11-28T02:05:21.226Z,100769.75
2022-11-28T02:07:48.892Z,100754.69
2022-11-28T02:10:20.685Z,100756.66
2022-11-28T02:13:05.630Z,100751.53
2022-11-28T02:15:41.128Z,100752.28
2022-11-28T02:18:18.137Z,100752.28
2022-11-28T02:20:56.542Z,100748.56
2022-11-28T02:23:26.064Z,100743.47
2022-11-28T02:26:29.091Z,100742.19
2022-11-28T02:29:14.453Z,100739.22
2022-11-28T02:32:13.689Z,100740.25
2022-11-28T02:34:49.541Z,100737.09
2022-11-28T02:37:26.992Z,100733.97
2022-11-28T02:40:10.505Z,100730.47
2022-11-28T02:46:03.780Z,100720.44
2022-11-28T02:48:48.181Z,100718.03
2022-11-28T02:51:28.904Z,100714.91
2022-11-28T02:53:57.046Z,100711.94
2022-11-28T02:56:25.108Z,100714.63
2022-11-28T02:58:51.972Z,100711.75
2022-11-28T03:01:28.338Z,100712.78
2022-11-28T03:04:36.676Z,100704.94
2022-11-28T03:07:27.613Z,100706.81
2022-11-28T03:10:22.476Z,100706.81
2022-11-28T03:13:03.405Z,100707.13
2022-11-28T03:15:50.704Z,100700.84
2022-11-28T03:18:30.064Z,100689.53
2022-11-28T03:21:07.399Z,100684.34
2022-11-28T03:23:42.742Z,100687.84
2022-11-28T03:26:33.757Z,100688.94
2022-11-28T03:29:06.950Z,100691.59
2022-11-28T03:31:38.455Z,100683.59
2022-11-28T03:34:12.127Z,100687.22
2022-11-28T03:36:45.542Z,100685.44
2022-11-28T03:39:17.498Z,100675.22
2022-11-28T03:42:16.618Z,100669.00
2022-11-28T03:44:58.549Z,100683.28
2022-11-28T03:47:30.579Z,100682.59
2022-11-28T03:50:03.343Z,100674.00
2022-11-28T03:52:35.961Z,100672.06
2022-11-28T03:55:08.351Z,100683.47
2022-11-28T03:57:43.120Z,100668.50
2022-11-28T04:00:12.987Z,100666.00
2022-11-28T04:02:42.949Z,100665.25
2022-11-28T04:05:18.937Z,100676.66
2022-11-28T04:08:14.554Z,100666.09
2022-11-28T04:10:51.635Z,100669.06
2022-11-28T04:13:23.989Z,100663.97
2022-11-28T04:16:03.689Z,100662.09
2022-11-28T04:18:40.059Z,100675.19
2022-11-28T04:21:28.752Z,100663.78
2022-11-28T04:24:01.332Z,100661.81
2022-11-28T04:26:33.012Z,100672.63
2022-11-28T04:29:03.298Z,100671.78
2022-11-28T04:31:30.985Z,100674.50
2022-11-28T04:34:05.490Z,100670.91
2022-11-28T04:36:35.421Z,100669.22
2022-11-28T04:39:03.276Z,100659.47
2022-11-28T04:41:38.359Z,100661.06
2022-11-28T04:44:24.500Z,100649.75
2022-11-28T04:46:55.068Z,100650.94
2022-11-28T04:49:23.109Z,100655.19
2022-11-28T04:52:07.084Z,100644.47
2022-11-28T04:54:39.320Z,100647.09
2022-11-28T04:57:17.516Z,100640.06
2022-11-28T04:59:45.034Z,100642.56
2022-11-28T05:02:14.724Z,100627.31
2022-11-28T05:04:44.148Z,100627.22
2022-11-28T05:07:10.918Z,100630.81
2022-11-28T05:09:38.185Z,100631.81
2022-11-28T05:12:09.228Z,100631.69
2022-11-28T05:14:35.686Z,100643.00
2022-11-28T05:17:02.168Z,100631.31
2022-11-28T05:19:28.622Z,100634.22
2022-11-28T05:21:55.139Z,100631.69
2022-11-28T05:24:22.504Z,100625.47
2022-11-28T05:26:49.440Z,100630.63
2022-11-28T05:29:16.109Z,100628.69
2022-11-28T05:31:42.725Z,100623.50
2022-11-28T05:34:09.255Z,100614.41
2022-11-28T05:36:35.684Z,100617.22
2022-11-28T05:39:02.140Z,100615.88
2022-11-28T05:41:31.662Z,100601.84
2022-11-28T05:44:00.328Z,100601.16
2022-11-28T05:46:27.955Z,100593.56
2022-11-28T05:48:54.568Z,100589.91
2022-11-28T05:51:21.030Z,100595.78
2022-11-28T05:53:47.493Z,100588.66
2022-11-28T05:56:16.836Z,100589.50
2022-11-28T05:58:44.151Z,100581.66
2022-11-28T06:01:16.420Z,100586.34
2022-11-28T06:03:43.407Z,100582.94
2022-11-28T06:06:12.417Z,100572.41
2022-11-28T06:08:38.886Z,100570.00
2022-11-28T06:11:05.759Z,100579.63
2022-11-28T06:13:32.318Z,100559.53
2022-11-28T06:15:58.755Z,100565.75
2022-11-28T06:18:25.457Z,100571.72
2022-11-28T06:20:51.937Z,100574.44
2022-11-28T06:23:18.412Z,100575.13
2022-11-28T06:25:44.895Z,100573.16
2022-11-28T06:28:11.828Z,100581.81
2022-11-28T06:30:38.349Z,100567.28
2022-11-28T06:33:04.779Z,100576.38
2022-11-28T06:35:31.214Z,100569.06
2022-11-28T06:37:57.651Z,100567.28
2022-11-28T06:40:24.079Z,100555.34
2022-11-28T06:42:51.106Z,100559.25
2022-11-28T06:45:17.977Z,100560.03
2022-11-28T06:47:44.447Z,100557.91
2022-11-28T06:50:11.172Z,100551.59
2022-11-28T06:52:37.657Z,100547.50
2022-11-28T06:55:04.275Z,100545.44
2022-11-28T06:57:32.625Z,100532.19
2022-11-28T06:59:59.089Z,100535.84
2022-11-28T07:02:27.440Z,100534.97
2022-11-28T07:04:54.048Z,100533.69
2022-11-28T07:07:20.604Z,100536.16
2022-11-28T07:09:47.089Z,100535.78
2022-11-28T07:12:13.737Z,100528.13
2022-11-28T07:14:40.182Z,100526.25
2022-11-28T07:17:06.721Z,100515.38
2022-11-28T07:19:33.298Z,100513.66
2022-11-28T07:21:59.990Z,100513.69
2022-11-28T07:24:26.748Z,100522.63
2022-11-28T07:26:53.292Z,100507.81
2022-11-28T07:29:19.809Z,100505.06
2022-11-28T07:31:46.290Z,100500.94
2022-11-28T07:34:12.955Z,100492.38
2022-11-28T07:36:39.420Z,100483.69
2022-11-28T07:39:08.740Z,100484.34
2022-11-28T07:41:35.742Z,100492.66
2022-11-28T07:44:04.246Z,100500.50
2022-11-28T07:46:33.104Z,100491.28
2022-11-28T07:49:00.279Z,100496.44
2022-11-28T07:51:29.929Z,100493.59
2022-11-28T07:53:56.663Z,100493.81
2022-11-28T07:56:35.111Z,100494.19
2022-11-28T07:59:07.288Z,100487.94
2022-11-28T08:01:35.960Z,100479.19
2022-11-28T08:04:14.344Z,100483.16
2022-11-28T08:06:43.536Z,100478.84
2022-11-28T08:09:12.051Z,100487.22
2022-11-28T08:11:38.576Z,100497.03
2022-11-28T08:14:05.692Z,100504.19
2022-11-28T08:16:32.768Z,100492.31
2022-11-28T08:19:02.833Z,100487.84
2022-11-28T08:21:32.580Z,100489.75
2022-11-28T08:24:01.246Z,100490.41
2022-11-28T08:26:31.040Z,100485.88
2022-11-28T08:28:58.729Z,100484.28
2022-11-28T08:31:28.934Z,100480.56
2022-11-28T08:33:57.256Z,100474.53
2022-11-28T08:36:24.016Z,100479.19
2022-11-28T08:39:03.954Z,100477.94
2022-11-28T08:41:37.150Z,100485.47
2022-11-28T08:44:03.734Z,100484.16
2022-11-28T08:46:30.553Z,100490.28
2022-11-28T08:48:57.093Z,100494.66
2022-11-28T08:51:23.998Z,100513.91
2022-11-28T08:53:54.892Z,100503.69
2022-11-28T08:56:24.788Z,100504.72
2022-11-28T08:58:51.349Z,100504.56
2022-11-28T09:01:23.309Z,100506.78
2022-11-28T09:03:50.803Z,100503.50
2022-11-28T09:06:18.455Z,100503.81
2022-11-28T09:08:45.488Z,100511.31
2022-11-28T09:11:14.628Z,100498.94
2022-11-28T09:13:41.372Z,100500.47
2022-11-28T09:16:08.162Z,100498.66
2022-11-28T09:18:35.363Z,100499.88
2022-11-28T09:21:04.960Z,100502.16
2022-11-28T09:23:31.414Z,100491.59
2022-11-28T09:25:57.891Z,100498.06
2022-11-28T09:28:24.882Z,100493.34
2022-11-28T09:30:59.814Z,100502.72
2022-11-28T09:33:26.274Z,100493.53
2022-11-28T09:35:52.706Z,100488.56
2022-11-28T09:38:19.144Z,100480.63
2022-11-28T09:40:45.620Z,100481.81
2022-11-28T09:43:18.531Z,100489.56
2022-11-28T09:45:49.107Z,100487.34
2022-11-28T09:48:36.545Z,100482.28
2022-11-28T09:51:40.619Z,100469.91
2022-11-28T09:54:38.408Z,100472.09
2022-11-28T09:57:16.550Z,100474.69
2022-11-28T09:59:43.275Z,100467.50
2022-11-28T10:02:38.777Z,100463.34
2022-11-28T10:05:11.444Z,100471.06
2022-11-28T10:07:49.925Z,100472.28
2022-11-28T10:10:37.699Z,100467.63
2022-11-28T10:13:20.724Z,100472.28
2022-11-28T10:16:06.931Z,100475.78
2022-11-28T10:18:50.520Z,100470.84
2022-11-28T10:21:43.112Z,100476.97
2022-11-28T10:24:19.462Z,100478.56
2022-11-28T10:26:54.036Z,100481.56
2022-11-28T10:29:20.403Z,100470.66
2022-11-28T10:31:48.252Z,100477.13
2022-11-28T10:34:33.821Z,100477.88
2022-11-28T10:37:06.180Z,100480.50
2022-11-28T10:39:34.981Z,100473.72
2022-11-28T10:42:35.366Z,100473.38
2022-11-28T10:45:27.668Z,100471.72
2022-11-28T10:48:29.478Z,100476.25
2022-11-28T10:51:37.015Z,100462.22
2022-11-28T10:54:19.509Z,100463.47
2022-11-28T10:56:57.223Z,100472.16
2022-11-28T10:59:23.591Z,100466.34
2022-11-28T11:01:51.988Z,100458.22
2022-11-28T11:04:21.776Z,100457.88
2022-11-28T11:07:15.027Z,100455.03
2022-11-28T11:09:45.370Z,100454.72
2022-11-28T11:12:21.257Z,100444.22
2022-11-28T11:14:47.812Z,100465.31
2022-11-28T11:17:29.041Z,100466.69
2022-11-28T11:19:59.886Z,100460.78
2022-11-28T11:22:31.600Z,100455.69
2022-11-28T11:25:06.208Z,100442.50
2022-11-28T11:27:33.894Z,100437.97
2022-11-28T11:30:01.869Z,100446.34
2022-11-28T11:32:30.677Z,100456.50
2022-11-28T11:34:59.135Z,100452.28
2022-11-28T11:37:35.915Z,100450.38
2022-11-28T11:40:17.315Z,100456.72
2022-11-28T11:42:53.265Z,100452.59
2022-11-28T11:45:34.525Z,100453.53
2022-11-28T11:48:03.633Z,100459.69
2022-11-28T11:50:31.938Z,100459.81
2022-11-28T11:53:21.260Z,100453.53
2022-11-28T11:55:53.485Z,100460.88
2022-11-28T11:58:24.438Z,100471.03
2022-11-28T12:00:54.536Z,100467.31
2022-11-28T12:03:30.944Z,100461.69
2022-11-28T12:06:16.623Z,100459.78
2022-11-28T12:09:07.584Z,100467.22
2022-11-28T12:11:42.486Z,100460.34
2022-11-28T12:14:32.487Z,100454.06
2022-11-28T12:20:22.868Z,100456.19
2022-11-28T12:23:11.857Z,100454.25
2022-11-28T12:25:52.902Z,100446.53
2022-11-28T12:28:26.675Z,100442.28
2022-11-28T12:31:20.577Z,100447.59
2022-11-28T12:33:58.462Z,100445.25
2022-11-28T12:36:42.746Z,100442.81
2022-11-28T12:39:17.994Z,100444.28
2022-11-28T12:42:09.511Z,100442.59
2022-11-28T12:45:08.969Z,100445.25
2022-11-28T12:48:16.476Z,100445.25
2022-11-28T12:50:46.620Z,100442.72
2022-11-28T12:53:18.874Z,100438.97
2022-11-28T12:55:56.468Z,100439.97
2022-11-28T12:58:47.296Z,100439.22
2022-11-28T13:01:32.290Z,100432.63
2022-11-28T13:04:12.773Z,100430.41
2022-11-28T13:06:51.403Z,100431.38
2022-11-28T13:09:23.366Z,100425.22
2022-11-28T13:11:59.363Z,100426.16
2022-11-28T13:14:49.184Z,100427.13
2022-11-28T13:17:53.555Z,100421.72
2022-11-28T13:24:07.092Z,100420.78
2022-11-28T13:26:36.919Z,100424.72
2022-11-28T13:29:21.815Z,100418.75
2022-11-28T13:32:24.587Z,100424.59
2022-11-28T13:35:19.066Z,100419.28
2022-11-28T13:41:02.078Z,100416.84
2022-11-28T13:43:48.902Z,100416.97
2022-11-28T13:46:15.584Z,100414.53
2022-11-28T13:49:13.804Z,100415.06
2022-11-28T13:51:41.984Z,100418.31
2022-11-28T13:54:17.409Z,100412.38
2022-11-28T13:57:03.850Z,100419.19
2022-11-28T13:59:31.203Z,100421.41
2022-11-28T14:02:22.348Z,100424.25
2022-11-28T14:04:49.577Z,100429.13
2022-11-28T14:07:30.857Z,100423.31
2022-11-28T14:10:16.063Z,100424.25
2022-11-28T14:12:57.193Z,100424.47
2022-11-28T14:15:41.002Z,100424.16
2022-11-28T14:18:56.660Z,100410.06
2022-11-28T14:21:27.626Z,100418.94
2022-11-28T14:24:15.902Z,100419.06
2022-11-28T14:26:43.387Z,100407.38
2022-11-28T14:29:39.969Z,100417.31
2022-11-28T14:32:30.167Z,100413.31
2022-11-28T14:34:58.953Z,100417.03
2022-11-28T14:37:29.422Z,100417.19
2022-11-28T14:39:57.687Z,100419.53
2022-11-28T14:42:59.066Z,100426.03
2022-11-28T14:45:32.955Z,100416.16
2022-11-28T14:48:16.503Z,100423.19
2022-11-28T16:38:30.136Z,100418.38
2022-11-28T16:41:01.115Z,100424.63
2022-11-28T16:43:40.744Z,100428.88
2022-11-28T16:46:17.477Z,100421.03
2022-11-28T16:48:55.979Z,100433.28
2022-11-28T16:51:42.661Z,100434.56
2022-11-28T16:54:31.715Z,100438.91
2022-11-28T16:57:10.368Z,100436.25
2022-11-28T16:59:36.921Z,100437.97
2022-11-28T17:02:04.221Z,100431.72
2022-11-28T17:04:31.045Z,100434.59
2022-11-28T17:07:05.033Z,100431.72
2022-11-28T17:09:33.707Z,100429.25
2022-11-28T17:12:13.229Z,100432.69
2022-11-28T17:14:40.466Z,100432.25
2022-11-28T17:17:13.321Z,100434.38
2022-11-28T17:19:39.937Z,100428.53
2022-11-28T17:22:07.534Z,100427.38
2022-11-28T17:24:35.913Z,100430.63
2022-11-28T17:27:03.604Z,100423.03
2022-11-28T17:29:30.209Z,100429.16
2022-11-28T17:31:58.780Z,100433.72
2022-11-28T17:34:27.890Z,100429.72
2022-11-28T17:36:54.331Z,100433.00
2022-11-28T17:39:20.809Z,100434.03
2022-11-28T17:41:48.104Z,100431.72
2022-11-28T17:44:18.391Z,100429.81
2022-11-28T17:46:44.821Z,100436.19
2022-11-28T17:49:12.632Z,100437.22
2022-11-28T17:51:39.482Z,100436.19
2022-11-28T17:54:06.481Z,100431.19
2022-11-28T17:56:33.187Z,100437.84
2022-11-28T17:59:00.868Z,100433.81
2022-11-28T18:01:30.263Z,100422.63
2022-11-28T18:03:59.789Z,100427.47
2022-11-28T18:06:26.256Z,100423.56
2022-11-28T18:08:53.295Z,100426.63
2022-11-28T18:11:20.190Z,100425.06
2022-11-28T18:13:48.420Z,100426.44
2022-11-28T18:16:18.492Z,100421.13
2022-11-28T18:18:45.656Z,100427.25
2022-11-28T18:21:14.113Z,100424.41
2022-11-28T18:23:42.893Z,100425.25
2022-11-28T18:26:15.878Z,100424.38
2022-11-28T18:28:42.500Z,100416.78
2022-11-28T18:31:11.490Z,100424.72
2022-11-28T18:33:39.083Z,100418.56
2022-11-28T18:36:13.898Z,100425.88
2022-11-28T18:38:41.308Z,100428.84
2022-11-28T18:41:09.483Z,100421.97
2022-11-28T18:43:36.524Z,100419.09
2022-11-28T18:46:07.883Z,100418.47
2022-11-28T18:48:38.741Z,100419.31
2022-11-28T18:51:17.462Z,100416.25
2022-11-28T18:53:44.892Z,100420.81
2022-11-28T18:56:12.041Z,100416.56
2022-11-28T18:58:40.968Z,100415.84
2022-11-28T19:01:12.214Z,100411.06
2022-11-28T19:03:39.677Z,100409.47
2022-11-28T19:06:11.507Z,100412.84
2022-11-28T19:08:39.242Z,100409.03
2022-11-28T19:11:10.449Z,100410.81
2022-11-28T19:13:38.032Z,100423.13
2022-11-28T19:16:09.613Z,100422.50
2022-11-28T19:18:36.936Z,100424.28
2022-11-28T19:21:15.457Z,100419.63
2022-11-28T19:23:43.195Z,100431.81
2022-11-28T19:26:12.058Z,100425.34
2022-11-28T19:28:40.478Z,100428.53
2022-11-28T19:31:16.523Z,100422.81
2022-11-28T19:33:43.853Z,100423.13
2022-11-28T19:36:12.493Z,100430.72
2022-11-28T19:38:39.947Z,100431.25
2022-11-28T19:41:07.371Z,100421.94
2022-11-28T19:43:34.921Z,100417.50
2022-11-28T19:46:02.901Z,100420.66
2022-11-28T19:48:31.432Z,100421.63
2022-11-28T19:50:58.743Z,100411.25
2022-11-28T19:53:25.929Z,100417.72
2022-11-28T19:55:53.898Z,100423.00
2022-11-28T19:58:21.191Z,100420.44
2022-11-28T20:00:47.820Z,100426.16
2022-11-28T20:03:15.018Z,100425.91
2022-11-28T20:05:42.165Z,100425.41
2022-11-28T20:08:09.056Z,100431.56
2022-11-28T20:10:38.178Z,100432.28
2022-11-28T20:13:05.896Z,100433.03
2022-11-28T20:15:36.968Z,100438.44
2022-11-28T20:18:04.186Z,100444.16
2022-11-28T20:20:33.678Z,100440.22
2022-11-28T20:23:01.174Z,100445.72
2022-11-28T20:25:27.705Z,100444.84
2022-11-28T20:27:54.322Z,100447.72
2022-11-28T20:30:21.585Z,100450.06
2022-11-28T20:32:49.323Z,100453.88
2022-11-28T20:35:16.008Z,100454.69
2022-11-28T20:37:42.538Z,100452.16
2022-11-28T20:40:09.338Z,100450.00
2022-11-28T20:42:39.856Z,100445.94
2022-11-28T20:45:07.239Z,100443.88
2022-11-28T20:47:34.761Z,100444.09
2022-11-28T20:50:01.236Z,100451.41
2022-11-28T20:52:27.671Z,100449.78
2022-11-28T20:54:54.092Z,100443.78
2022-11-28T20:57:22.182Z,100453.63
2022-11-28T20:59:49.076Z,100454.44
2022-11-28T21:02:15.703Z,100449.25
2022-11-28T21:04:42.255Z,100453.06
2022-11-28T21:07:08.682Z,100455.72
2022-11-28T21:09:35.090Z,100455.81
2022-11-28T21:12:01.524Z,100456.00
2022-11-28T21:14:28.732Z,100460.13
2022-11-28T21:16:56.050Z,100464.59
2022-11-28T21:19:22.618Z,100454.03
2022-11-28T21:21:49.131Z,100455.81
2022-11-28T21:24:15.589Z,100450.41
2022-11-28T21:26:48.040Z,100454.03
2022-11-28T21:29:18.452Z,100448.72
2022-11-28T21:31:45.259Z,100451.44
2022-11-28T21:34:16.395Z,100445.13
2022-11-28T21:36:43.334Z,100446.91
2022-11-28T21:39:12.703Z,100440.97
2022-11-28T21:41:39.199Z,100444.59
2022-11-28T21:44:05.819Z,100443.63
2022-11-28T21:46:32.713Z,100450.69
2022-11-28T21:48:59.569Z,100443.63
2022-11-28T21:51:28.464Z,100440.97
2022-11-28T21:53:57.440Z,100447.75
2022-11-28T21:56:24.838Z,100439.81
2022-11-28T21:58:51.735Z,100448.72
2022-11-28T22:01:18.524Z,100443.44
2022-11-28T22:03:45.135Z,100445.34
2022-11-28T22:06:18.195Z,100449.78
2022-11-28T22:08:45.662Z,100449.03
2022-11-28T22:11:13.247Z,100441.94
2022-11-28T22:13:48.022Z,100446.38
2022-11-28T22:16:20.386Z,100450.63
2022-11-28T22:18:49.347Z,100441.94
2022-11-28T22:24:05.113Z,100446.38
2022-11-28T22:26:31.877Z,100450.63
2022-11-28T22:28:58.903Z,100439.94
2022-11-28T22:31:25.569Z,100448.81
2022-11-28T22:33:52.248Z,100448.50
2022-11-28T22:36:21.307Z,100448.81
2022-11-28T22:38:49.021Z,100446.28
2022-11-28T22:41:23.370Z,100444.84
2022-11-28T22:43:55.788Z,100448.50
2022-11-28T22:46:22.518Z,100450.31
2022-11-28T22:48:49.110Z,100455.53
2022-11-28T22:51:20.814Z,100456.34
2022-11-28T22:53:47.498Z,100447.00
2022-11-28T22:56:15.462Z,100462.03
2022-11-28T22:58:44.508Z,100450.31
2022-11-28T23:01:17.173Z,100454.78
2022-11-28T23:03:44.442Z,100449.47
2022-11-28T23:06:16.689Z,100451.38
2022-11-28T23:08:43.484Z,100451.16
2022-11-28T23:11:15.397Z,100453.28
2022-11-28T23:13:43.069Z,100456.75
2022-11-28T23:16:20.190Z,100459.31
2022-11-28T23:18:50.374Z,100457.59
2022-11-28T23:21:18.831Z,100459.50
2022-11-28T23:23:45.991Z,100465.66
2022-11-28T23:26:19.086Z,100451.44
2022-11-28T23:28:46.887Z,100461.28
2022-11-28T23:31:25.113Z,100457.59
2022-11-28T23:33:53.662Z,100459.31
2022-11-28T23:36:31.371Z,100459.31
2022-11-28T23:39:02.079Z,100460.53
2022-11-28T23:41:29.769Z,100462.25
2022-11-28T23:43:56.789Z,100464.78
2022-11-28T23:46:24.974Z,100466.69
2022-11-28T23:48:51.846Z,100465.81
2022-11-28T23:51:21.130Z,100460.66
2022-11-28T23:53:47.770Z,100461.59
2022-11-28T23:56:17.666Z,100469.53
2022-11-28T23:58:44.646Z,100471.53
